Terminal Aerodrome Forecast
Issued by NWS Louisville, KY

Home | Current Version | Previous Version | Text Only | Print | Product List | Glossary On
Versions: 1 2 3 4 5 6 7 8 9 10 11 12 13 14 15 16 17 18 19 20 21 22 23 24 25
000
FTUS43 KLMK 252121 AAA
TAFBWG
TAF AMD
KBWG 252121Z 2521/2618 29007G17KT 4SM SHRA VCTS SCT011CB BKN040
      TEMPO 2521/2522 1/4SM TSRA FG BKN011CB
     FM252300 19006KT P6SM VCTS SCT030CB BKN100
     FM260100 18004KT 6SM HZ SCT060 BKN100=

USA.gov is the U.S. government's official web portal to all federal, state and local government web resources and services.